sensor_id;sensor_type;location;lat;lon;timestamp;pressure;altitude;pressure_sealevel;temperature;humidity
13058;BME280;6595;49.578;11.012;2024-03-02T00:00:23;977.487;;;5.44;92.0
13058;BME280;6595;49.578;11.012;2024-03-02T00:02:24;977.580;;;5.41;92.1
13058;BME280;6595;49.578;11.012;2024-03-02T00:04:24;977.584;;;5.43;92.1
13058;BME280;6595;49.578;11.012;2024-03-02T00:06:23;977.508;;;5.44;92.1
13058;BME280;6595;49.578;11.012;2024-03-02T00:08:25;977.484;;;5.46;92.1
13058;BME280;6595;49.578;11.012;2024-03-02T00:10:26;977.470;;;5.46;92.1
13058;BME280;6595;49.578;11.012;2024-03-02T00:12:24;977.572;;;5.48;92.2
13058;BME280;6595;49.578;11.012;2024-03-02T00:14:24;977.458;;;5.47;92.1
13058;BME280;6595;49.578;11.012;2024-03-02T00:16:23;977.485;;;5.48;92.0
13058;BME280;6595;49.578;11.012;2024-03-02T00:18:26;977.464;;;5.51;92.0
13058;BME280;6595;49.578;11.012;2024-03-02T00:20:24;977.436;;;5.53;92.1
13058;BME280;6595;49.578;11.012;2024-03-02T00:22:24;977.436;;;5.53;92.1
13058;BME280;6595;49.578;11.012;2024-03-02T00:24:30;977.503;;;5.51;92.0
13058;BME280;6595;49.578;11.012;2024-03-02T00:26:24;977.485;;;5.51;91.9
13058;BME280;6595;49.578;11.012;2024-03-02T00:28:25;977.440;;;5.57;91.9
13058;BME280;6595;49.578;11.012;2024-03-02T00:30:46;977.364;;;5.58;92.0
13058;BME280;6595;49.578;11.012;2024-03-02T00:32:23;977.385;;;5.60;92.0
13058;BME280;6595;49.578;11.012;2024-03-02T00:34:23;977.375;;;5.64;91.9
13058;BME280;6595;49.578;11.012;2024-03-02T00:36:25;977.415;;;5.61;92.0
13058;BME280;6595;49.578;11.012;2024-03-02T00:38:23;977.377;;;5.60;92.0
13058;BME280;6595;49.578;11.012;2024-03-02T00:40:29;977.541;;;5.60;91.9
13058;BME280;6595;49.578;11.012;2024-03-02T00:42:24;977.477;;;5.64;91.9
13058;BME280;6595;49.578;11.012;2024-03-02T00:44:25;977.420;;;5.60;92.0
13058;BME280;6595;49.578;11.012;2024-03-02T00:46:24;977.437;;;5.58;92.2
13058;BME280;6595;49.578;11.012;2024-03-02T00:48:24;977.489;;;5.55;92.2
13058;BME280;6595;49.578;11.012;2024-03-02T00:50:23;977.527;;;5.58;92.2
13058;BME280;6595;49.578;11.012;2024-03-02T00:52:24;977.480;;;5.57;92.1
13058;BME280;6595;49.578;11.012;2024-03-02T00:54:25;977.481;;;5.58;92.2
13058;BME280;6595;49.578;11.012;2024-03-02T00:56:24;977.478;;;5.55;92.2
13058;BME280;6595;49.578;11.012;2024-03-02T00:58:23;977.495;;;5.55;92.3
13058;BME280;6595;49.578;11.012;2024-03-02T01:00:24;977.509;;;5.57;92.3
13058;BME280;6595;49.578;11.012;2024-03-02T01:02:23;977.535;;;5.58;92.3
13058;BME280;6595;49.578;11.012;2024-03-02T01:04:23;977.631;;;5.58;92.4
13058;BME280;6595;49.578;11.012;2024-03-02T01:06:24;977.586;;;5.61;92.3
13058;BME280;6595;49.578;11.012;2024-03-02T01:08:23;977.594;;;5.62;92.3
13058;BME280;6595;49.578;11.012;2024-03-02T01:10:23;977.664;;;5.65;92.4
13058;BME280;6595;49.578;11.012;2024-03-02T01:12:24;977.653;;;5.65;92.4
13058;BME280;6595;49.578;11.012;2024-03-02T01:14:23;977.682;;;5.62;92.4
13058;BME280;6595;49.578;11.012;2024-03-02T01:16:23;977.679;;;5.61;92.4
13058;BME280;6595;49.578;11.012;2024-03-02T01:18:24;977.650;;;5.62;92.4
13058;BME280;6595;49.578;11.012;2024-03-02T01:20:23;977.533;;;5.60;92.4
13058;BME280;6595;49.578;11.012;2024-03-02T01:22:23;977.583;;;5.60;92.4
13058;BME280;6595;49.578;11.012;2024-03-02T01:24:24;977.546;;;5.60;92.5
13058;BME280;6595;49.578;11.012;2024-03-02T01:26:23;977.573;;;5.61;92.6
13058;BME280;6595;49.578;11.012;2024-03-02T01:28:23;977.566;;;5.62;92.6
13058;BME280;6595;49.578;11.012;2024-03-02T01:30:24;977.565;;;5.60;92.5
13058;BME280;6595;49.578;11.012;2024-03-02T01:32:23;977.611;;;5.55;92.5
13058;BME280;6595;49.578;11.012;2024-03-02T01:34:24;977.465;;;5.55;92.6
13058;BME280;6595;49.578;11.012;2024-03-02T01:36:24;977.533;;;5.54;92.8
13058;BME280;6595;49.578;11.012;2024-03-02T01:38:23;977.493;;;5.53;92.7
13058;BME280;6595;49.578;11.012;2024-03-02T01:40:23;977.555;;;5.50;92.8
13058;BME280;6595;49.578;11.012;2024-03-02T01:42:24;977.523;;;5.50;92.7
13058;BME280;6595;49.578;11.012;2024-03-02T01:44:23;977.493;;;5.53;92.7
13058;BME280;6595;49.578;11.012;2024-03-02T01:46:23;977.518;;;5.51;92.7
13058;BME280;6595;49.578;11.012;2024-03-02T01:48:24;977.580;;;5.53;92.8
13058;BME280;6595;49.578;11.012;2024-03-02T01:50:26;977.510;;;5.55;92.8
13058;BME280;6595;49.578;11.012;2024-03-02T01:52:24;977.510;;;5.55;92.8
13058;BME280;6595;49.578;11.012;2024-03-02T01:54:24;977.450;;;5.51;92.8
13058;BME280;6595;49.578;11.012;2024-03-02T01:56:24;977.476;;;5.54;92.7
13058;BME280;6595;49.578;11.012;2024-03-02T01:58:24;977.597;;;5.53;92.7
13058;BME280;6595;49.578;11.012;2024-03-02T02:00:23;977.503;;;5.53;92.8
13058;BME280;6595;49.578;11.012;2024-03-02T02:02:24;977.577;;;5.57;92.8
13058;BME280;6595;49.578;11.012;2024-03-02T02:04:24;977.618;;;5.54;92.7
13058;BME280;6595;49.578;11.012;2024-03-02T02:06:24;977.591;;;5.54;92.7
13058;BME280;6595;49.578;11.012;2024-03-02T02:08:23;977.507;;;5.55;92.7
13058;BME280;6595;49.578;11.012;2024-03-02T02:10:24;977.585;;;5.55;92.7
13058;BME280;6595;49.578;11.012;2024-03-02T02:12:23;977.461;;;5.53;92.7
13058;BME280;6595;49.578;11.012;2024-03-02T02:14:24;977.461;;;5.53;92.7
13058;BME280;6595;49.578;11.012;2024-03-02T02:16:23;977.484;;;5.48;92.5
13058;BME280;6595;49.578;11.012;2024-03-02T02:18:23;977.569;;;5.47;92.5
13058;BME280;6595;49.578;11.012;2024-03-02T02:20:24;977.534;;;5.46;92.5
13058;BME280;6595;49.578;11.012;2024-03-02T02:22:24;977.527;;;5.43;92.6
13058;BME280;6595;49.578;11.012;2024-03-02T02:24:24;977.568;;;5.41;92.5
13058;BME280;6595;49.578;11.012;2024-03-02T02:26:23;977.522;;;5.34;92.5
13058;BME280;6595;49.578;11.012;2024-03-02T02:28:24;977.521;;;5.30;92.6
13058;BME280;6595;49.578;11.012;2024-03-02T02:30:25;977.548;;;5.26;92.7
13058;BME280;6595;49.578;11.012;2024-03-02T02:32:23;977.601;;;5.28;92.8
13058;BME280;6595;49.578;11.012;2024-03-02T02:34:24;977.546;;;5.30;92.9
13058;BME280;6595;49.578;11.012;2024-03-02T02:36:23;977.673;;;5.33;92.9
13058;BME280;6595;49.578;11.012;2024-03-02T02:38:23;977.546;;;5.33;93.0
13058;BME280;6595;49.578;11.012;2024-03-02T02:40:23;977.536;;;5.36;92.9
13058;BME280;6595;49.578;11.012;2024-03-02T02:42:23;977.425;;;5.33;93.0
13058;BME280;6595;49.578;11.012;2024-03-02T02:44:24;977.597;;;5.38;92.9
13058;BME280;6595;49.578;11.012;2024-03-02T02:46:23;977.618;;;5.38;92.9
13058;BME280;6595;49.578;11.012;2024-03-02T02:48:23;977.564;;;5.46;92.8
13058;BME280;6595;49.578;11.012;2024-03-02T02:50:23;977.512;;;5.46;92.7
13058;BME280;6595;49.578;11.012;2024-03-02T02:52:24;977.532;;;5.44;92.7
13058;BME280;6595;49.578;11.012;2024-03-02T02:54:24;977.590;;;5.50;92.9
13058;BME280;6595;49.578;11.012;2024-03-02T02:56:23;977.590;;;5.50;92.9
13058;BME280;6595;49.578;11.012;2024-03-02T02:58:24;977.496;;;5.57;92.9
13058;BME280;6595;49.578;11.012;2024-03-02T03:00:24;977.590;;;5.58;92.9
13058;BME280;6595;49.578;11.012;2024-03-02T03:02:23;977.502;;;5.62;93.0
13058;BME280;6595;49.578;11.012;2024-03-02T03:04:23;977.416;;;5.70;93.0
13058;BME280;6595;49.578;11.012;2024-03-02T03:06:23;977.497;;;5.72;92.9
13058;BME280;6595;49.578;11.012;2024-03-02T03:08:24;977.568;;;5.74;92.7
13058;BME280;6595;49.578;11.012;2024-03-02T03:10:23;977.516;;;5.75;92.7
13058;BME280;6595;49.578;11.012;2024-03-02T03:12:23;977.487;;;5.77;92.8
13058;BME280;6595;49.578;11.012;2024-03-02T03:14:24;977.436;;;5.79;92.9
13058;BME280;6595;49.578;11.012;2024-03-02T03:16:24;977.444;;;5.85;92.9
13058;BME280;6595;49.578;11.012;2024-03-02T03:18:23;977.521;;;5.91;92.6
13058;BME280;6595;49.578;11.012;2024-03-02T03:20:23;977.472;;;5.91;92.6
13058;BME280;6595;49.578;11.012;2024-03-02T03:22:24;977.432;;;5.91;92.5
13058;BME280;6595;49.578;11.012;2024-03-02T03:24:24;977.387;;;5.91;92.5
13058;BME280;6595;49.578;11.012;2024-03-02T03:26:24;977.448;;;5.95;92.5
13058;BME280;6595;49.578;11.012;2024-03-02T03:28:24;977.409;;;5.94;92.4
13058;BME280;6595;49.578;11.012;2024-03-02T03:30:23;977.572;;;5.95;92.4
13058;BME280;6595;49.578;11.012;2024-03-02T03:32:24;977.471;;;5.98;92.5
13058;BME280;6595;49.578;11.012;2024-03-02T03:34:23;977.475;;;6.04;92.5
13058;BME280;6595;49.578;11.012;2024-03-02T03:36:24;977.520;;;6.04;92.4
13058;BME280;6595;49.578;11.012;2024-03-02T03:38:23;977.390;;;6.05;92.5
13058;BME280;6595;49.578;11.012;2024-03-02T03:40:24;977.462;;;6.11;92.7
13058;BME280;6595;49.578;11.012;2024-03-02T03:42:23;977.572;;;6.15;92.5
13058;BME280;6595;49.578;11.012;2024-03-02T03:44:24;977.498;;;6.22;92.4
13058;BME280;6595;49.578;11.012;2024-03-02T03:46:23;977.483;;;6.26;92.3
13058;BME280;6595;49.578;11.012;2024-03-02T03:48:23;977.574;;;6.26;92.3
13058;BME280;6595;49.578;11.012;2024-03-02T03:50:24;977.474;;;6.31;92.2
13058;BME280;6595;49.578;11.012;2024-03-02T03:52:23;977.474;;;6.31;92.2
13058;BME280;6595;49.578;11.012;2024-03-02T03:54:23;977.451;;;6.32;92.1
13058;BME280;6595;49.578;11.012;2024-03-02T03:56:24;977.498;;;6.31;92.1
13058;BME280;6595;49.578;11.012;2024-03-02T03:58:23;977.360;;;6.31;92.1
13058;BME280;6595;49.578;11.012;2024-03-02T04:00:23;977.451;;;6.28;92.0
13058;BME280;6595;49.578;11.012;2024-03-02T04:02:24;977.468;;;6.28;92.0
13058;BME280;6595;49.578;11.012;2024-03-02T04:04:23;977.470;;;6.25;92.0
13058;BME280;6595;49.578;11.012;2024-03-02T04:06:24;977.420;;;6.23;92.0
13058;BME280;6595;49.578;11.012;2024-03-02T04:08:23;977.394;;;6.22;92.0
13058;BME280;6595;49.578;11.012;2024-03-02T04:10:23;977.362;;;6.21;92.1
13058;BME280;6595;49.578;11.012;2024-03-02T04:12:24;977.386;;;6.21;92.1
13058;BME280;6595;49.578;11.012;2024-03-02T04:14:23;977.376;;;6.19;92.1
13058;BME280;6595;49.578;11.012;2024-03-02T04:16:23;977.374;;;6.18;92.2
13058;BME280;6595;49.578;11.012;2024-03-02T04:18:23;977.422;;;6.16;92.2
13058;BME280;6595;49.578;11.012;2024-03-02T04:20:24;977.400;;;6.13;92.3
13058;BME280;6595;49.578;11.012;2024-03-02T04:22:23;977.436;;;6.15;92.2
13058;BME280;6595;49.578;11.012;2024-03-02T04:24:23;977.428;;;6.11;92.3
13058;BME280;6595;49.578;11.012;2024-03-02T04:26:23;977.428;;;6.08;92.3
13058;BME280;6595;49.578;11.012;2024-03-02T04:28:23;977.465;;;6.06;92.3
13058;BME280;6595;49.578;11.012;2024-03-02T04:30:23;977.495;;;6.06;92.3
13058;BME280;6595;49.578;11.012;2024-03-02T04:32:24;977.540;;;6.02;92.4
13058;BME280;6595;49.578;11.012;2024-03-02T04:34:23;977.464;;;5.95;92.4
13058;BME280;6595;49.578;11.012;2024-03-02T04:36:23;977.547;;;5.95;92.5
13058;BME280;6595;49.578;11.012;2024-03-02T04:38:23;977.513;;;5.91;92.6
13058;BME280;6595;49.578;11.012;2024-03-02T04:40:23;977.579;;;5.91;92.6
13058;BME280;6595;49.578;11.012;2024-03-02T04:42:23;977.593;;;5.90;92.7
13058;BME280;6595;49.578;11.012;2024-03-02T04:44:24;977.645;;;5.95;92.8
13058;BME280;6595;49.578;11.012;2024-03-02T04:46:23;977.610;;;5.90;92.8
13058;BME280;6595;49.578;11.012;2024-03-02T04:48:24;977.646;;;5.88;92.9
13058;BME280;6595;49.578;11.012;2024-03-02T04:50:24;977.673;;;5.90;92.9
13058;BME280;6595;49.578;11.012;2024-03-02T04:52:23;977.752;;;5.88;92.8
13058;BME280;6595;49.578;11.012;2024-03-02T04:54:23;977.677;;;5.88;92.8
13058;BME280;6595;49.578;11.012;2024-03-02T04:56:24;977.602;;;5.87;92.7
13058;BME280;6595;49.578;11.012;2024-03-02T04:58:23;977.629;;;5.85;92.8
13058;BME280;6595;49.578;11.012;2024-03-02T05:00:23;977.685;;;5.84;92.8
13058;BME280;6595;49.578;11.012;2024-03-02T05:02:24;977.704;;;5.82;92.8
13058;BME280;6595;49.578;11.012;2024-03-02T05:04:23;977.644;;;5.81;92.9
13058;BME280;6595;49.578;11.012;2024-03-02T05:06:23;977.647;;;5.79;92.9
13058;BME280;6595;49.578;11.012;2024-03-02T05:08:24;977.658;;;5.82;92.9
13058;BME280;6595;49.578;11.012;2024-03-02T05:10:23;977.726;;;5.81;92.9
13058;BME280;6595;49.578;11.012;2024-03-02T05:12:24;977.726;;;5.81;92.9
13058;BME280;6595;49.578;11.012;2024-03-02T05:14:23;977.735;;;5.87;92.9
13058;BME280;6595;49.578;11.012;2024-03-02T05:16:24;977.736;;;5.85;92.9
13058;BME280;6595;49.578;11.012;2024-03-02T05:18:23;977.716;;;5.81;92.7
13058;BME280;6595;49.578;11.012;2024-03-02T05:20:23;977.771;;;5.84;92.8
13058;BME280;6595;49.578;11.012;2024-03-02T05:22:24;977.836;;;5.84;92.8
13058;BME280;6595;49.578;11.012;2024-03-02T05:24:23;977.750;;;5.84;92.8
13058;BME280;6595;49.578;11.012;2024-03-02T05:26:23;977.743;;;5.81;92.8
13058;BME280;6595;49.578;11.012;2024-03-02T05:28:24;977.681;;;5.82;92.9
13058;BME280;6595;49.578;11.012;2024-03-02T05:30:23;977.681;;;5.82;92.9
13058;BME280;6595;49.578;11.012;2024-03-02T05:32:23;977.677;;;5.85;92.8
13058;BME280;6595;49.578;11.012;2024-03-02T05:34:24;977.713;;;5.81;92.7
13058;BME280;6595;49.578;11.012;2024-03-02T05:36:23;977.691;;;5.84;92.8
13058;BME280;6595;49.578;11.012;2024-03-02T05:38:24;977.687;;;5.84;92.8
13058;BME280;6595;49.578;11.012;2024-03-02T05:40:24;977.771;;;5.84;92.8
13058;BME280;6595;49.578;11.012;2024-03-02T05:42:23;977.770;;;5.87;92.7
13058;BME280;6595;49.578;11.012;2024-03-02T05:44:23;977.756;;;5.90;92.7
13058;BME280;6595;49.578;11.012;2024-03-02T05:46:24;977.785;;;5.87;92.7
13058;BME280;6595;49.578;11.012;2024-03-02T05:48:23;977.748;;;5.88;92.7
13058;BME280;6595;49.578;11.012;2024-03-02T05:50:23;977.797;;;5.88;92.6
13058;BME280;6595;49.578;11.012;2024-03-02T05:52:24;977.877;;;5.87;92.7
13058;BME280;6595;49.578;11.012;2024-03-02T05:54:24;977.790;;;5.88;92.7
13058;BME280;6595;49.578;11.012;2024-03-02T05:56:23;977.834;;;5.87;92.7
13058;BME280;6595;49.578;11.012;2024-03-02T05:58:24;977.877;;;5.84;92.7
13058;BME280;6595;49.578;11.012;2024-03-02T06:00:23;977.962;;;5.87;92.6
13058;BME280;6595;49.578;11.012;2024-03-02T06:02:23;977.839;;;5.82;92.6
13058;BME280;6595;49.578;11.012;2024-03-02T06:04:24;977.758;;;5.78;92.5
13058;BME280;6595;49.578;11.012;2024-03-02T06:06:23;977.819;;;5.79;92.6
13058;BME280;6595;49.578;11.012;2024-03-02T06:08:23;977.886;;;5.78;92.6
13058;BME280;6595;49.578;11.012;2024-03-02T06:10:24;977.850;;;5.77;92.6
13058;BME280;6595;49.578;11.012;2024-03-02T06:12:23;977.831;;;5.74;92.6
13058;BME280;6595;49.578;11.012;2024-03-02T06:14:24;977.843;;;5.72;92.7
13058;BME280;6595;49.578;11.012;2024-03-02T06:16:24;977.939;;;5.70;92.7
13058;BME280;6595;49.578;11.012;2024-03-02T06:18:23;977.944;;;5.71;92.8
13058;BME280;6595;49.578;11.012;2024-03-02T06:20:24;977.947;;;5.70;92.7
13058;BME280;6595;49.578;11.012;2024-03-02T06:22:23;977.948;;;5.67;92.7
13058;BME280;6595;49.578;11.012;2024-03-02T06:24:23;978.031;;;5.67;92.8
13058;BME280;6595;49.578;11.012;2024-03-02T06:26:24;977.975;;;5.65;92.7
13058;BME280;6595;49.578;11.012;2024-03-02T06:28:23;977.943;;;5.67;92.8
13058;BME280;6595;49.578;11.012;2024-03-02T06:30:23;977.943;;;5.67;92.8
13058;BME280;6595;49.578;11.012;2024-03-02T06:32:24;978.023;;;5.65;92.7
13058;BME280;6595;49.578;11.012;2024-03-02T06:34:23;978.042;;;5.64;92.7
13058;BME280;6595;49.578;11.012;2024-03-02T06:36:24;978.076;;;5.65;92.7
13058;BME280;6595;49.578;11.012;2024-03-02T06:38:23;978.106;;;5.67;92.7
13058;BME280;6595;49.578;11.012;2024-03-02T06:40:24;978.059;;;5.67;92.7
13058;BME280;6595;49.578;11.012;2024-03-02T06:42:24;977.964;;;5.68;92.7
13058;BME280;6595;49.578;11.012;2024-03-02T06:44:23;977.957;;;5.67;92.7
13058;BME280;6595;49.578;11.012;2024-03-02T06:46:23;977.906;;;5.67;92.6
13058;BME280;6595;49.578;11.012;2024-03-02T06:48:23;977.902;;;5.68;92.6
13058;BME280;6595;49.578;11.012;2024-03-02T06:50:24;977.996;;;5.65;92.6
13058;BME280;6595;49.578;11.012;2024-03-02T06:52:23;977.973;;;5.65;92.6
13058;BME280;6595;49.578;11.012;2024-03-02T06:54:23;978.007;;;5.64;92.6
13058;BME280;6595;49.578;11.012;2024-03-02T06:56:23;977.950;;;5.70;92.6
13058;BME280;6595;49.578;11.012;2024-03-02T06:58:24;977.913;;;5.70;92.6
13058;BME280;6595;49.578;11.012;2024-03-02T07:00:24;977.927;;;5.71;92.5
13058;BME280;6595;49.578;11.012;2024-03-02T07:02:23;977.982;;;5.71;92.5
13058;BME280;6595;49.578;11.012;2024-03-02T07:04:23;977.977;;;5.71;92.5
13058;BME280;6595;49.578;11.012;2024-03-02T07:06:23;977.950;;;5.74;92.6
13058;BME280;6595;49.578;11.012;2024-03-02T07:08:23;977.996;;;5.77;92.4
13058;BME280;6595;49.578;11.012;2024-03-02T07:10:23;977.977;;;5.78;92.4
13058;BME280;6595;49.578;11.012;2024-03-02T07:12:24;977.977;;;5.78;92.4
13058;BME280;6595;49.578;11.012;2024-03-02T07:14:23;978.059;;;5.95;92.4
13058;BME280;6595;49.578;11.012;2024-03-02T07:16:23;978.074;;;5.98;92.2
13058;BME280;6595;49.578;11.012;2024-03-02T07:18:23;978.058;;;6.09;92.2
13058;BME280;6595;49.578;11.012;2024-03-02T07:20:24;978.124;;;6.15;92.0
13058;BME280;6595;49.578;11.012;2024-03-02T07:22:24;977.934;;;6.29;91.9
13058;BME280;6595;49.578;11.012;2024-03-02T07:24:23;978.105;;;6.35;91.7
13058;BME280;6595;49.578;11.012;2024-03-02T07:26:24;978.120;;;6.46;91.5
13058;BME280;6595;49.578;11.012;2024-03-02T07:28:24;978.184;;;6.56;91.1
13058;BME280;6595;49.578;11.012;2024-03-02T07:30:24;978.125;;;6.63;91.1
13058;BME280;6595;49.578;11.012;2024-03-02T07:32:23;978.156;;;6.79;90.6
13058;BME280;6595;49.578;11.012;2024-03-02T07:34:24;978.253;;;6.80;90.4
13058;BME280;6595;49.578;11.012;2024-03-02T07:36:23;978.245;;;6.87;90.0
13058;BME280;6595;49.578;11.012;2024-03-02T07:38:23;978.154;;;6.94;89.9
13058;BME280;6595;49.578;11.012;2024-03-02T07:40:23;978.287;;;7.00;89.7
13058;BME280;6595;49.578;11.012;2024-03-02T07:42:23;978.204;;;7.03;89.8
13058;BME280;6595;49.578;11.012;2024-03-02T07:44:24;978.167;;;7.11;89.6
13058;BME280;6595;49.578;11.012;2024-03-02T07:46:24;978.167;;;7.11;89.6
13058;BME280;6595;49.578;11.012;2024-03-02T07:48:23;978.125;;;7.22;89.2
13058;BME280;6595;49.578;11.012;2024-03-02T07:50:24;978.165;;;7.32;88.7
13058;BME280;6595;49.578;11.012;2024-03-02T07:52:23;978.227;;;7.32;88.3
13058;BME280;6595;49.578;11.012;2024-03-02T07:54:23;978.201;;;7.41;88.2
13058;BME280;6595;49.578;11.012;2024-03-02T07:56:24;978.200;;;7.51;88.0
13058;BME280;6595;49.578;11.012;2024-03-02T07:58:24;978.245;;;7.54;88.0
13058;BME280;6595;49.578;11.012;2024-03-02T08:00:24;978.245;;;7.57;87.9
13058;BME280;6595;49.578;11.012;2024-03-02T08:02:23;978.227;;;7.61;87.7
13058;BME280;6595;49.578;11.012;2024-03-02T08:04:23;978.299;;;7.69;87.7
13058;BME280;6595;49.578;11.012;2024-03-02T08:06:24;978.303;;;7.82;87.3
13058;BME280;6595;49.578;11.012;2024-03-02T08:08:24;978.303;;;7.82;87.3
13058;BME280;6595;49.578;11.012;2024-03-02T08:10:23;978.220;;;7.90;86.8
13058;BME280;6595;49.578;11.012;2024-03-02T08:12:23;978.348;;;7.95;86.8
13058;BME280;6595;49.578;11.012;2024-03-02T08:14:24;978.288;;;7.98;86.8
13058;BME280;6595;49.578;11.012;2024-03-02T08:16:23;978.310;;;8.00;86.4
13058;BME280;6595;49.578;11.012;2024-03-02T08:18:23;978.294;;;7.93;86.2
13058;BME280;6595;49.578;11.012;2024-03-02T08:20:24;978.345;;;7.99;86.4
13058;BME280;6595;49.578;11.012;2024-03-02T08:22:24;978.327;;;8.13;86.4
13058;BME280;6595;49.578;11.012;2024-03-02T08:24:24;978.501;;;8.14;86.2
13058;BME280;6595;49.578;11.012;2024-03-02T08:26:23;978.425;;;8.13;86.1
13058;BME280;6595;49.578;11.012;2024-03-02T08:28:24;978.425;;;8.13;86.1
13058;BME280;6595;49.578;11.012;2024-03-02T08:30:24;978.405;;;8.19;85.9
13058;BME280;6595;49.578;11.012;2024-03-02T08:32:23;978.300;;;8.20;85.6
13058;BME280;6595;49.578;11.012;2024-03-02T08:34:24;978.464;;;8.26;85.7
13058;BME280;6595;49.578;11.012;2024-03-02T08:36:23;978.343;;;8.33;85.5
13058;BME280;6595;49.578;11.012;2024-03-02T08:38:23;978.385;;;8.36;85.4
13058;BME280;6595;49.578;11.012;2024-03-02T08:40:23;978.354;;;8.47;86.3
13058;BME280;6595;49.578;11.012;2024-03-02T08:42:24;978.357;;;8.63;85.9
13058;BME280;6595;49.578;11.012;2024-03-02T08:44:24;978.347;;;8.65;84.8
13058;BME280;6595;49.578;11.012;2024-03-02T08:46:23;978.322;;;8.75;85.0
13058;BME280;6595;49.578;11.012;2024-03-02T08:48:24;978.354;;;8.90;83.9
13058;BME280;6595;49.578;11.012;2024-03-02T08:50:23;978.408;;;8.84;83.6
13058;BME280;6595;49.578;11.012;2024-03-02T08:52:23;978.401;;;8.92;83.5
13058;BME280;6595;49.578;11.012;2024-03-02T08:54:24;978.326;;;8.95;83.6
13058;BME280;6595;49.578;11.012;2024-03-02T08:56:23;978.497;;;8.91;83.3
13058;BME280;6595;49.578;11.012;2024-03-02T08:58:23;978.418;;;8.98;83.3
13058;BME280;6595;49.578;11.012;2024-03-02T09:00:24;978.497;;;9.12;82.9
13058;BME280;6595;49.578;11.012;2024-03-02T09:02:24;978.450;;;9.22;82.5
13058;BME280;6595;49.578;11.012;2024-03-02T09:04:23;978.501;;;9.22;82.5
13058;BME280;6595;49.578;11.012;2024-03-02T09:06:23;978.470;;;9.34;82.3
13058;BME280;6595;49.578;11.012;2024-03-02T09:08:24;978.547;;;9.42;82.1
13058;BME280;6595;49.578;11.012;2024-03-02T09:10:23;978.490;;;9.45;82.1
13058;BME280;6595;49.578;11.012;2024-03-02T09:12:23;978.490;;;9.45;82.1
13058;BME280;6595;49.578;11.012;2024-03-02T09:16:23;978.423;;;9.63;80.8
13058;BME280;6595;49.578;11.012;2024-03-02T09:18:23;978.551;;;9.69;80.5
13058;BME280;6595;49.578;11.012;2024-03-02T09:20:24;978.440;;;9.76;79.6
13058;BME280;6595;49.578;11.012;2024-03-02T09:22:24;978.353;;;9.76;80.0
13058;BME280;6595;49.578;11.012;2024-03-02T09:24:23;978.434;;;9.79;80.2
13058;BME280;6595;49.578;11.012;2024-03-02T09:26:24;978.405;;;9.86;79.4
13058;BME280;6595;49.578;11.012;2024-03-02T09:28:24;978.364;;;9.85;79.4
13058;BME280;6595;49.578;11.012;2024-03-02T09:30:24;978.298;;;9.86;79.0
13058;BME280;6595;49.578;11.012;2024-03-02T09:32:23;978.340;;;9.92;78.5
13058;BME280;6595;49.578;11.012;2024-03-02T09:34:24;978.340;;;9.92;78.5
13058;BME280;6595;49.578;11.012;2024-03-02T09:36:24;978.255;;;9.99;77.3
13058;BME280;6595;49.578;11.012;2024-03-02T09:38:23;978.364;;;9.99;77.4
13058;BME280;6595;49.578;11.012;2024-03-02T09:40:23;978.353;;;10.03;77.3
13058;BME280;6595;49.578;11.012;2024-03-02T09:42:24;978.482;;;10.17;78.0
13058;BME280;6595;49.578;11.012;2024-03-02T09:44:24;978.501;;;10.30;77.2
13058;BME280;6595;49.578;11.012;2024-03-02T09:46:23;978.501;;;10.30;77.2
13058;BME280;6595;49.578;11.012;2024-03-02T09:48:23;978.550;;;10.41;76.3
13058;BME280;6595;49.578;11.012;2024-03-02T09:50:24;978.505;;;10.56;76.2
13058;BME280;6595;49.578;11.012;2024-03-02T09:52:24;978.510;;;10.65;75.5
13058;BME280;6595;49.578;11.012;2024-03-02T09:54:23;978.442;;;10.61;75.1
13058;BME280;6595;49.578;11.012;2024-03-02T09:56:23;978.341;;;10.54;74.9
13058;BME280;6595;49.578;11.012;2024-03-02T09:58:24;978.411;;;10.63;74.8
13058;BME280;6595;49.578;11.012;2024-03-02T10:00:23;978.395;;;10.80;75.5
13058;BME280;6595;49.578;11.012;2024-03-02T10:02:24;978.490;;;10.80;74.9
13058;BME280;6595;49.578;11.012;2024-03-02T10:04:24;978.521;;;10.80;74.3
13058;BME280;6595;49.578;11.012;2024-03-02T10:06:24;978.482;;;10.75;74.6
13058;BME280;6595;49.578;11.012;2024-03-02T10:08:24;978.482;;;10.75;74.6
13058;BME280;6595;49.578;11.012;2024-03-02T10:10:24;978.551;;;10.77;74.0
13058;BME280;6595;49.578;11.012;2024-03-02T10:12:23;978.499;;;10.84;73.5
13058;BME280;6595;49.578;11.012;2024-03-02T10:14:23;978.515;;;10.88;73.7
13058;BME280;6595;49.578;11.012;2024-03-02T10:16:24;978.472;;;11.04;73.8
13058;BME280;6595;49.578;11.012;2024-03-02T10:18:26;978.476;;;11.10;74.1
13058;BME280;6595;49.578;11.012;2024-03-02T10:20:24;978.551;;;11.29;73.2
13058;BME280;6595;49.578;11.012;2024-03-02T10:22:23;978.552;;;11.25;72.7
13058;BME280;6595;49.578;11.012;2024-03-02T10:24:24;978.539;;;11.26;73.2
13058;BME280;6595;49.578;11.012;2024-03-02T10:26:24;978.539;;;11.26;73.2
13058;BME280;6595;49.578;11.012;2024-03-02T10:28:23;978.526;;;11.58;72.5
13058;BME280;6595;49.578;11.012;2024-03-02T10:30:24;978.566;;;11.65;72.1
13058;BME280;6595;49.578;11.012;2024-03-02T10:32:23;978.550;;;11.65;72.0
13058;BME280;6595;49.578;11.012;2024-03-02T10:34:24;978.536;;;11.75;72.3
13058;BME280;6595;49.578;11.012;2024-03-02T10:36:23;978.485;;;11.79;71.3
13058;BME280;6595;49.578;11.012;2024-03-02T10:38:23;978.457;;;11.83;71.9
13058;BME280;6595;49.578;11.012;2024-03-02T10:40:23;978.487;;;12.00;71.7
13058;BME280;6595;49.578;11.012;2024-03-02T10:42:23;978.486;;;12.10;71.2
13058;BME280;6595;49.578;11.012;2024-03-02T10:44:25;978.425;;;12.03;70.4
13058;BME280;6595;49.578;11.012;2024-03-02T10:46:27;978.466;;;12.03;70.0
13058;BME280;6595;49.578;11.012;2024-03-02T10:48:25;978.347;;;12.09;70.5
13058;BME280;6595;49.578;11.012;2024-03-02T10:50:24;978.382;;;12.15;70.1
13058;BME280;6595;49.578;11.012;2024-03-02T10:52:24;978.382;;;12.23;69.9
13058;BME280;6595;49.578;11.012;2024-03-02T10:54:24;978.382;;;12.36;70.2
13058;BME280;6595;49.578;11.012;2024-03-02T10:56:29;978.403;;;12.50;70.3
13058;BME280;6595;49.578;11.012;2024-03-02T10:58:26;978.357;;;12.60;69.6
13058;BME280;6595;49.578;11.012;2024-03-02T11:00:24;978.329;;;12.57;68.9
13058;BME280;6595;49.578;11.012;2024-03-02T11:02:25;978.295;;;12.55;68.5